Terminal Aerodrome Forecast
Issued by NWS Birmingham, AL

Current Version | Previous Version | Text Only | Print | Product List | Glossary On
Versions: 1 2 3 4 5 6 7 8 9 10 11 12
000
FTUS44 KBMX 130540
TAFBHM
TAF
KBHM 130540Z 1306/1406 32008KT P6SM SKC
     FM131500 22010KT P6SM SKC
     FM131900 21013G20KT P6SM SKC
     FM140100 22008KT P6SM SKC=

USA.gov is the U.S. government's official web portal to all federal, state and local government web resources and services.